createdAt,value
2023-02-18T00:01:19.377Z,7.00
2023-02-18T00:02:41.467Z,7.00
2023-02-18T00:04:03.559Z,7.00
2023-02-18T00:05:25.627Z,7.00
2023-02-18T00:06:48.149Z,7.10
2023-02-18T00:08:10.231Z,7.10
2023-02-18T00:09:32.306Z,7.10
2023-02-18T00:10:54.370Z,7.10
2023-02-18T00:12:16.449Z,7.10
2023-02-18T00:13:38.690Z,7.10
2023-02-18T00:15:00.791Z,7.10
2023-02-18T00:16:24.632Z,7.10
2023-02-18T00:17:46.654Z,7.10
2023-02-18T00:19:12.703Z,7.10
2023-02-18T00:20:36.211Z,7.10
2023-02-18T00:21:58.350Z,7.10
2023-02-18T00:23:20.442Z,7.10
2023-02-18T00:24:42.566Z,7.10
2023-02-18T00:26:11.729Z,7.00
2023-02-18T00:27:33.867Z,7.00
2023-02-18T00:28:56.028Z,7.00
2023-02-18T00:30:18.190Z,7.00
2023-02-18T00:31:41.382Z,6.90
2023-02-18T00:33:03.525Z,6.90
2023-02-18T00:34:25.716Z,6.90
2023-02-18T00:35:48.235Z,6.90
2023-02-18T00:37:10.299Z,6.80
2023-02-18T00:38:32.686Z,6.80
2023-02-18T00:39:55.027Z,6.80
2023-02-18T00:41:17.654Z,6.80
2023-02-18T00:42:39.693Z,6.80
2023-02-18T00:44:01.767Z,6.80
2023-02-18T00:45:23.814Z,6.80
2023-02-18T00:46:48.132Z,6.70
2023-02-18T00:48:10.233Z,6.80
2023-02-18T00:49:32.460Z,6.80
2023-02-18T00:50:54.581Z,6.80
2023-02-18T00:52:16.655Z,6.80
2023-02-18T00:53:39.884Z,6.80
2023-02-18T00:55:01.986Z,6.80
2023-02-18T00:56:24.159Z,6.80
2023-02-18T00:57:46.180Z,6.80
2023-02-18T00:59:08.197Z,6.80
2023-02-18T01:00:30.268Z,6.80
2023-02-18T01:01:52.339Z,6.80
2023-02-18T01:03:15.427Z,6.70
2023-02-18T01:04:37.539Z,6.70
2023-02-18T01:05:59.634Z,6.60
2023-02-18T01:07:21.761Z,6.60
2023-02-18T01:08:43.848Z,6.60
2023-02-18T01:10:06.503Z,6.60
2023-02-18T01:11:28.599Z,6.60
2023-02-18T01:12:50.654Z,6.60
2023-02-18T01:14:12.716Z,6.60
2023-02-18T01:15:34.778Z,6.50
2023-02-18T01:16:56.903Z,6.50
2023-02-18T01:18:19.586Z,6.50
2023-02-18T01:19:41.643Z,6.50
2023-02-18T01:21:05.259Z,6.50
2023-02-18T01:22:27.512Z,6.50
2023-02-18T01:23:49.605Z,6.50
2023-02-18T01:25:12.463Z,6.50
2023-02-18T01:26:34.569Z,6.50
2023-02-18T01:27:56.667Z,6.50
2023-02-18T01:29:18.918Z,6.40
2023-02-18T01:30:41.812Z,6.40
2023-02-18T01:32:03.985Z,6.50
2023-02-18T01:33:26.109Z,6.40
2023-02-18T01:34:48.207Z,6.40
2023-02-18T01:36:11.779Z,6.40
2023-02-18T01:37:34.245Z,6.40
2023-02-18T01:38:56.387Z,6.40
2023-02-18T01:40:22.696Z,6.40
2023-02-18T01:41:44.868Z,6.40
2023-02-18T01:43:07.086Z,6.40
2023-02-18T01:44:29.862Z,6.40
2023-02-18T01:46:12.659Z,6.40
2023-02-18T01:47:34.690Z,6.40
2023-02-18T01:49:00.258Z,6.30
2023-02-18T01:50:22.411Z,6.30
2023-02-18T01:51:50.276Z,6.30
2023-02-18T01:53:16.731Z,6.30
2023-02-18T01:54:42.821Z,6.30
2023-02-18T01:56:09.124Z,6.30
2023-02-18T01:57:35.148Z,6.30
2023-02-18T01:59:01.618Z,6.30
2023-02-18T02:00:23.989Z,6.30
2023-02-18T02:01:46.649Z,6.30
2023-02-18T02:03:08.769Z,6.30
2023-02-18T02:04:30.950Z,6.30
2023-02-18T02:05:53.031Z,6.30
2023-02-18T02:07:17.340Z,6.30
2023-02-18T02:08:39.447Z,6.40
2023-02-18T02:10:02.285Z,6.40
2023-02-18T02:11:29.140Z,6.40
2023-02-18T02:13:03.128Z,6.30
2023-02-18T02:14:40.104Z,6.30
2023-02-18T02:16:11.103Z,6.30
2023-02-18T02:17:54.444Z,6.40
2023-02-18T02:19:16.451Z,6.40
2023-02-18T02:21:15.470Z,6.30
2023-02-18T02:22:45.766Z,6.30
2023-02-18T02:24:35.489Z,6.30
2023-02-18T02:26:06.947Z,6.30
2023-02-18T02:27:50.730Z,6.20
2023-02-18T02:29:15.749Z,6.20
2023-02-18T02:31:10.609Z,6.20
2023-02-18T02:32:41.528Z,6.20
2023-02-18T02:34:26.664Z,6.20
2023-02-18T02:36:13.795Z,6.20
2023-02-18T02:37:43.035Z,6.20
2023-02-18T02:39:43.564Z,6.20
2023-02-18T02:41:32.192Z,6.20
2023-02-18T02:43:09.464Z,6.20
2023-02-18T02:45:02.380Z,6.20
2023-02-18T02:46:29.268Z,6.20
2023-02-18T02:48:11.601Z,6.20
2023-02-18T02:49:59.001Z,6.10
2023-02-18T02:51:40.183Z,6.10
2023-02-18T02:53:17.258Z,6.10
2023-02-18T02:54:39.964Z,6.10
2023-02-18T02:56:02.166Z,6.10
2023-02-18T02:57:24.130Z,6.00
2023-02-18T02:58:59.564Z,6.00
2023-02-18T03:00:59.319Z,6.00
2023-02-18T03:02:36.364Z,6.00
2023-02-18T03:04:07.541Z,6.00
2023-02-18T03:05:54.142Z,6.00
2023-02-18T03:07:46.940Z,6.00
2023-02-18T03:09:39.881Z,6.00
2023-02-18T03:11:11.361Z,6.00
2023-02-18T03:12:55.018Z,6.00
2023-02-18T03:14:27.583Z,6.00
2023-02-18T03:16:20.153Z,6.00
2023-02-18T03:17:52.229Z,6.00
2023-02-18T03:19:22.514Z,6.00
2023-02-18T03:20:56.981Z,6.10
2023-02-18T03:22:25.341Z,6.10
2023-02-18T03:23:56.259Z,6.10
2023-02-18T03:25:20.973Z,6.10
2023-02-18T03:26:48.507Z,6.10
2023-02-18T03:28:21.263Z,6.10
2023-02-18T03:29:46.637Z,6.10
2023-02-18T03:31:17.157Z,6.20
2023-02-18T03:32:39.272Z,6.20
2023-02-18T03:34:12.768Z,6.20
2023-02-18T03:35:36.956Z,6.10
2023-02-18T03:37:00.805Z,6.10
2023-02-18T03:38:47.400Z,6.10
2023-02-18T03:40:10.806Z,6.10
2023-02-18T03:41:33.014Z,6.10
2023-02-18T03:42:56.720Z,6.10
2023-02-18T03:44:18.712Z,6.00
2023-02-18T03:45:40.872Z,6.00
2023-02-18T03:47:03.287Z,6.00
2023-02-18T03:48:25.545Z,6.00
2023-02-18T03:49:47.574Z,6.00
2023-02-18T03:51:09.617Z,6.00
2023-02-18T03:52:31.743Z,6.00
2023-02-18T03:53:54.125Z,6.00
2023-02-18T03:55:16.643Z,6.00
2023-02-18T03:56:38.756Z,6.00
2023-02-18T03:58:00.761Z,6.00
2023-02-18T03:59:22.942Z,6.00
2023-02-18T04:00:44.936Z,6.00
2023-02-18T04:02:06.974Z,6.00
2023-02-18T04:03:29.071Z,6.10
2023-02-18T04:04:51.192Z,6.00
2023-02-18T04:06:13.314Z,6.10
2023-02-18T04:07:35.897Z,6.00
2023-02-18T04:08:58.030Z,6.00
2023-02-18T04:10:20.660Z,6.00
2023-02-18T04:11:42.678Z,6.10
2023-02-18T04:13:05.248Z,6.10
2023-02-18T04:14:27.341Z,6.00
2023-02-18T04:15:50.620Z,6.00
2023-02-18T04:17:12.667Z,6.00
2023-02-18T04:18:34.974Z,6.00
2023-02-18T04:19:56.972Z,6.00
2023-02-18T04:21:18.994Z,6.00
2023-02-18T04:22:40.995Z,5.90
2023-02-18T04:24:03.116Z,5.90
2023-02-18T04:25:25.106Z,5.90
2023-02-18T04:26:47.114Z,5.90
2023-02-18T04:28:13.249Z,5.90
2023-02-18T04:29:35.342Z,5.90
2023-02-18T04:30:57.428Z,5.90
2023-02-18T04:32:19.544Z,5.90
2023-02-18T04:33:41.627Z,5.90
2023-02-18T04:35:04.262Z,5.90
2023-02-18T04:36:26.444Z,5.90
2023-02-18T04:37:48.523Z,5.80
2023-02-18T04:39:10.596Z,5.80
2023-02-18T04:40:32.646Z,5.90
2023-02-18T04:41:54.689Z,5.90
2023-02-18T04:43:16.705Z,5.90
2023-02-18T04:44:39.046Z,5.80
2023-02-18T04:46:01.104Z,5.90
2023-02-18T04:47:23.364Z,5.80
2023-02-18T04:48:45.435Z,5.80
2023-02-18T04:50:08.190Z,5.90
2023-02-18T04:51:30.371Z,5.90
2023-02-18T04:52:52.459Z,5.90
2023-02-18T04:54:14.525Z,5.90
2023-02-18T04:55:36.552Z,5.90
2023-02-18T04:56:58.782Z,5.90
2023-02-18T04:58:21.457Z,5.90
2023-02-18T04:59:43.639Z,5.90
2023-02-18T05:01:06.010Z,5.90
2023-02-18T05:02:28.058Z,5.90
2023-02-18T05:03:50.130Z,5.80
2023-02-18T05:05:13.509Z,5.80
2023-02-18T05:06:35.557Z,5.80
2023-02-18T05:07:57.726Z,5.80
2023-02-18T05:09:19.894Z,5.80
2023-02-18T05:10:42.325Z,5.80
2023-02-18T05:12:04.536Z,5.70
2023-02-18T05:13:26.668Z,5.80
2023-02-18T05:14:48.686Z,5.80
2023-02-18T05:16:11.121Z,5.80
2023-02-18T05:17:33.811Z,5.80
2023-02-18T05:18:55.855Z,5.80
2023-02-18T05:20:18.052Z,5.80
2023-02-18T05:21:40.065Z,5.80
2023-02-18T05:23:02.273Z,5.80
2023-02-18T05:24:24.429Z,5.80
2023-02-18T05:25:46.457Z,5.80
2023-02-18T05:27:08.538Z,5.90
2023-02-18T05:28:30.941Z,5.90
2023-02-18T05:29:52.972Z,5.90
2023-02-18T05:31:15.149Z,5.90
2023-02-18T05:32:37.341Z,5.90
2023-02-18T05:33:59.404Z,5.90
2023-02-18T05:35:21.578Z,5.90
2023-02-18T05:36:43.936Z,5.90
2023-02-18T05:38:06.146Z,5.90
2023-02-18T05:39:28.253Z,5.90
2023-02-18T05:40:50.369Z,5.80
2023-02-18T05:42:12.583Z,5.80
2023-02-18T05:43:54.656Z,5.80
2023-02-18T05:45:16.764Z,5.80
2023-02-18T05:46:38.895Z,5.80
2023-02-18T05:48:00.928Z,5.80
2023-02-18T05:49:23.019Z,5.80
2023-02-18T05:50:45.109Z,5.70
2023-02-18T05:52:07.437Z,5.70
2023-02-18T05:53:29.543Z,5.70
2023-02-18T05:54:51.704Z,5.70
2023-02-18T05:56:13.733Z,5.70
2023-02-18T05:57:35.748Z,5.70
2023-02-18T05:58:57.818Z,5.70
2023-02-18T06:00:20.023Z,5.70
2023-02-18T06:01:42.457Z,5.70
2023-02-18T06:03:04.543Z,5.70
2023-02-18T06:04:26.576Z,5.70
2023-02-18T06:05:51.966Z,5.70
2023-02-18T06:07:14.146Z,5.70
2023-02-18T06:08:36.612Z,5.70
2023-02-18T06:09:58.684Z,5.70
2023-02-18T06:11:20.845Z,5.70
2023-02-18T06:12:42.957Z,5.70
2023-02-18T06:14:05.730Z,5.70
2023-02-18T06:15:27.924Z,5.70
2023-02-18T06:16:50.006Z,5.70
2023-02-18T06:18:12.625Z,5.70
2023-02-18T06:19:34.745Z,5.80
2023-02-18T06:20:56.759Z,5.80
2023-02-18T06:22:18.858Z,5.80
2023-02-18T06:23:41.029Z,5.80
2023-02-18T06:25:03.460Z,5.90
2023-02-18T06:26:26.803Z,5.90
2023-02-18T06:27:49.053Z,5.90
2023-02-18T06:29:11.063Z,6.00
2023-02-18T06:30:33.571Z,6.00
2023-02-18T06:31:55.884Z,6.00
2023-02-18T06:33:17.944Z,6.00
2023-02-18T06:34:40.015Z,6.10
2023-02-18T06:36:08.354Z,6.10
2023-02-18T06:37:30.582Z,6.10
2023-02-18T06:38:54.459Z,6.10
2023-02-18T06:40:18.372Z,6.10
2023-02-18T06:41:41.025Z,6.10
2023-02-18T06:43:03.104Z,6.10
2023-02-18T06:44:25.313Z,6.10
2023-02-18T06:45:47.585Z,6.20
2023-02-18T06:47:09.737Z,6.20
2023-02-18T06:48:32.100Z,6.20
2023-02-18T06:49:54.149Z,6.30
2023-02-18T06:51:16.401Z,6.30
2023-02-18T06:52:38.513Z,6.30
2023-02-18T06:54:00.639Z,6.30
2023-02-18T06:55:22.892Z,6.30
2023-02-18T06:56:44.928Z,6.30
2023-02-18T06:58:06.991Z,6.30
2023-02-18T06:59:29.006Z,6.30
2023-02-18T07:00:51.447Z,6.30
2023-02-18T07:02:13.730Z,6.30
2023-02-18T07:03:36.019Z,6.30
2023-02-18T07:04:58.081Z,6.30
2023-02-18T07:06:20.348Z,6.30
2023-02-18T07:07:42.504Z,6.30
2023-02-18T07:09:05.716Z,6.30
2023-02-18T07:10:27.733Z,6.30
2023-02-18T07:11:49.811Z,6.30
2023-02-18T07:13:11.828Z,6.40
2023-02-18T07:14:34.109Z,6.40
2023-02-18T07:15:56.334Z,6.50
2023-02-18T07:17:18.769Z,6.50
2023-02-18T07:18:40.842Z,6.50
2023-02-18T07:20:04.468Z,6.60
2023-02-18T07:21:26.508Z,6.60
2023-02-18T07:22:49.642Z,6.70
2023-02-18T07:24:11.684Z,6.70
2023-02-18T07:25:33.700Z,6.70
2023-02-18T07:26:55.793Z,6.70
2023-02-18T07:28:18.432Z,6.70
2023-02-18T07:29:40.513Z,6.70
2023-02-18T07:31:02.982Z,6.70
2023-02-18T07:32:25.150Z,6.80
2023-02-18T07:33:47.378Z,6.80
2023-02-18T07:35:13.204Z,6.80
2023-02-18T07:36:35.299Z,6.90
2023-02-18T07:37:58.078Z,6.90
2023-02-18T07:39:20.779Z,6.90
2023-02-18T07:40:45.340Z,6.90
2023-02-18T07:42:07.578Z,6.90
2023-02-18T07:43:29.628Z,6.90
2023-02-18T07:44:51.613Z,6.90
2023-02-18T07:46:13.650Z,6.90
2023-02-18T07:47:36.309Z,6.90
2023-02-18T07:48:58.708Z,6.90
2023-02-18T07:50:20.813Z,6.90
2023-02-18T07:51:42.842Z,6.90
2023-02-18T07:53:05.213Z,6.90
2023-02-18T07:54:27.736Z,6.90
2023-02-18T07:55:49.742Z,6.90
2023-02-18T07:57:11.888Z,7.00
2023-02-18T07:58:37.095Z,7.00
2023-02-18T07:59:59.200Z,7.10
2023-02-18T08:01:21.244Z,7.20
2023-02-18T08:02:43.260Z,7.20
2023-02-18T08:04:05.401Z,7.30
2023-02-18T08:05:27.499Z,7.30
2023-02-18T08:06:50.533Z,7.30
2023-02-18T08:08:17.228Z,7.40
2023-02-18T08:09:39.347Z,7.50
2023-02-18T08:11:13.374Z,7.40
2023-02-18T08:12:40.371Z,7.50
2023-02-18T08:14:02.514Z,7.60
2023-02-18T08:15:24.524Z,7.60
2023-02-18T08:16:46.627Z,7.70
2023-02-18T08:18:14.420Z,7.80
2023-02-18T08:19:36.472Z,7.80
2023-02-18T08:20:58.650Z,7.80
2023-02-18T08:22:20.656Z,7.90
2023-02-18T08:23:42.814Z,7.90
2023-02-18T08:25:05.300Z,8.00
2023-02-18T08:26:27.385Z,8.10
2023-02-18T08:27:49.449Z,8.10
2023-02-18T08:29:11.609Z,8.10
2023-02-18T08:30:33.772Z,8.20
2023-02-18T08:31:57.921Z,8.20
2023-02-18T08:33:21.184Z,8.20
2023-02-18T08:34:43.262Z,8.00
2023-02-18T08:36:10.393Z,8.00
2023-02-18T08:37:52.139Z,8.00
2023-02-18T08:39:14.636Z,7.90
2023-02-18T08:40:36.789Z,8.00
2023-02-18T08:41:58.841Z,7.90
2023-02-18T08:43:21.006Z,7.80
2023-02-18T08:44:43.078Z,7.80
2023-02-18T08:46:05.576Z,7.80
2023-02-18T08:48:17.523Z,7.80
2023-02-18T08:49:09.737Z,7.90
2023-02-18T08:50:31.849Z,7.90
2023-02-18T08:51:53.886Z,7.90
2023-02-18T08:53:17.148Z,7.90
2023-02-18T08:54:39.247Z,7.90
2023-02-18T08:56:01.267Z,7.80
2023-02-18T08:57:23.404Z,7.80
2023-02-18T08:58:45.491Z,7.90
2023-02-18T09:00:08.172Z,8.00
2023-02-18T09:01:30.284Z,8.00
2023-02-18T09:02:52.357Z,8.00
2023-02-18T09:04:14.485Z,8.20
2023-02-18T09:05:36.580Z,8.30
2023-02-18T09:06:58.732Z,8.40
2023-02-18T09:08:20.748Z,8.40
2023-02-18T09:09:42.834Z,8.40
2023-02-18T09:11:05.600Z,8.40
2023-02-18T09:12:28.622Z,8.30
2023-02-18T09:13:50.612Z,8.30
2023-02-18T09:15:12.689Z,8.30
2023-02-18T09:16:34.801Z,8.20
2023-02-18T09:17:56.830Z,8.30
2023-02-18T09:19:19.307Z,8.30
2023-02-18T09:20:41.386Z,8.20
2023-02-18T09:22:03.491Z,8.20
2023-02-18T09:23:30.761Z,8.30
2023-02-18T09:24:52.876Z,8.20
2023-02-18T09:26:17.357Z,8.30
2023-02-18T09:27:39.389Z,8.40
2023-02-18T09:29:01.707Z,8.50
2023-02-18T09:30:23.819Z,8.60
2023-02-18T09:31:46.023Z,8.60
2023-02-18T09:33:08.196Z,8.60
2023-02-18T09:34:30.835Z,8.70
2023-02-18T09:35:52.852Z,8.80
2023-02-18T09:37:15.631Z,8.90
2023-02-18T09:38:37.725Z,8.90
2023-02-18T09:40:00.027Z,8.90
2023-02-18T09:41:24.840Z,8.90
2023-02-18T09:42:47.061Z,8.80
2023-02-18T09:44:34.379Z,8.80
2023-02-18T09:45:58.226Z,8.80
2023-02-18T09:47:26.140Z,8.80
2023-02-18T09:48:48.964Z,8.80
2023-02-18T09:50:19.331Z,8.70
2023-02-18T09:51:47.585Z,8.70
2023-02-18T09:53:13.275Z,8.60
2023-02-18T09:54:35.853Z,8.60
2023-02-18T09:55:59.327Z,8.60
2023-02-18T09:57:45.749Z,8.60
2023-02-18T09:59:14.940Z,8.60
2023-02-18T10:00:40.597Z,8.50
2023-02-18T10:02:03.430Z,8.50
2023-02-18T10:03:27.125Z,8.50
2023-02-18T10:04:52.318Z,8.40
2023-02-18T10:06:26.396Z,8.50
2023-02-18T10:07:51.500Z,8.50
2023-02-18T10:09:37.096Z,8.60
2023-02-18T10:11:05.528Z,8.60
2023-02-18T10:12:35.061Z,8.60
2023-02-18T10:14:02.862Z,8.60
2023-02-18T10:15:29.386Z,8.60
2023-02-18T10:16:52.517Z,8.60
2023-02-18T10:18:31.444Z,8.60
2023-02-18T10:19:55.623Z,8.60
2023-02-18T10:21:24.844Z,8.60
2023-02-18T10:22:47.135Z,8.50
2023-02-18T10:24:28.285Z,8.50
2023-02-18T10:25:51.802Z,8.50
2023-02-18T10:27:26.365Z,8.40
2023-02-18T10:28:48.762Z,8.40
2023-02-18T10:30:29.475Z,8.50
2023-02-18T10:32:30.860Z,8.50
2023-02-18T10:34:16.298Z,8.50
2023-02-18T10:35:53.247Z,8.50
2023-02-18T10:37:49.277Z,8.50
2023-02-18T10:39:20.333Z,8.40
2023-02-18T10:40:47.754Z,8.40
2023-02-18T10:42:30.919Z,8.40
2023-02-18T10:43:56.087Z,8.40
2023-02-18T10:45:42.224Z,8.40
2023-02-18T10:47:35.301Z,8.40
2023-02-18T10:49:00.364Z,8.30
2023-02-18T10:50:39.998Z,8.30
2023-02-18T10:52:05.246Z,8.20
2023-02-18T10:53:37.257Z,8.20
2023-02-18T10:55:04.383Z,8.10
2023-02-18T10:56:38.387Z,8.10
2023-02-18T10:58:00.522Z,8.10
2023-02-18T10:59:25.236Z,8.00
2023-02-18T11:00:47.332Z,8.10
2023-02-18T11:02:18.287Z,8.00
2023-02-18T11:03:42.569Z,8.00
2023-02-18T11:05:26.468Z,8.00
2023-02-18T11:06:51.339Z,7.90
2023-02-18T11:08:26.037Z,8.00
2023-02-18T11:09:54.676Z,8.00
2023-02-18T11:11:25.375Z,8.00
2023-02-18T11:13:05.604Z,8.00
2023-02-18T11:14:48.811Z,8.00
2023-02-18T11:16:12.523Z,7.90
2023-02-18T11:17:37.967Z,7.90
2023-02-18T11:19:04.231Z,7.80
2023-02-18T11:20:38.038Z,7.70
2023-02-18T11:22:20.162Z,7.50
2023-02-18T11:23:50.812Z,7.40
2023-02-18T11:25:33.499Z,7.30
2023-02-18T11:26:55.779Z,7.20
2023-02-18T11:28:17.913Z,7.20
2023-02-18T11:29:40.176Z,7.10
2023-02-18T11:31:05.223Z,7.10
2023-02-18T11:32:29.377Z,7.10
2023-02-18T11:34:00.962Z,7.00
2023-02-18T11:35:26.801Z,7.00
2023-02-18T11:36:50.470Z,6.90
2023-02-18T11:38:26.338Z,6.80
2023-02-18T11:39:54.456Z,6.80
2023-02-18T11:41:21.095Z,6.70
2023-02-18T11:42:43.214Z,6.70
2023-02-18T11:44:16.650Z,6.70
2023-02-18T11:45:39.171Z,6.70
2023-02-18T11:47:04.505Z,6.70
2023-02-18T11:48:26.742Z,6.70
2023-02-18T11:50:14.512Z,6.70
2023-02-18T11:51:40.397Z,6.70
2023-02-18T11:53:26.551Z,6.60
2023-02-18T11:55:03.519Z,6.60
2023-02-18T11:56:27.852Z,6.50
2023-02-18T11:57:56.948Z,6.50
2023-02-18T11:59:19.206Z,6.40
2023-02-18T12:00:47.180Z,6.30
2023-02-18T12:02:12.104Z,6.20
2023-02-18T12:03:48.498Z,6.20
2023-02-18T12:05:16.467Z,6.20
2023-02-18T12:06:48.302Z,6.10
2023-02-18T12:08:24.712Z,6.10
2023-02-18T12:09:50.696Z,6.20
2023-02-18T12:11:28.071Z,6.20
2023-02-18T12:12:50.095Z,6.20
2023-02-18T12:14:19.495Z,6.20
2023-02-18T12:15:56.769Z,6.20
2023-02-18T12:17:58.852Z,6.20
2023-02-18T12:19:46.643Z,6.20
2023-02-18T12:21:29.224Z,6.30
2023-02-18T12:23:03.041Z,6.30
2023-02-18T12:24:30.906Z,6.30
2023-02-18T12:26:11.621Z,6.20
2023-02-18T12:28:01.548Z,6.20
2023-02-18T12:29:44.287Z,6.20
2023-02-18T12:31:29.102Z,6.20
2023-02-18T12:32:57.201Z,6.20
2023-02-18T12:34:38.588Z,6.30
2023-02-18T12:36:34.429Z,6.30
2023-02-18T12:38:15.664Z,6.40
2023-02-18T12:39:49.665Z,6.40
2023-02-18T12:41:45.555Z,6.50
2023-02-18T12:43:15.963Z,6.30
2023-02-18T12:45:00.046Z,6.40
2023-02-18T12:46:50.851Z,6.40
2023-02-18T12:48:33.957Z,6.40
2023-02-18T12:50:35.023Z,6.50
2023-02-18T12:52:07.297Z,6.50
2023-02-18T12:54:01.210Z,6.50
2023-02-18T12:55:43.592Z,6.50
2023-02-18T12:57:33.585Z,6.50
2023-02-18T12:59:20.057Z,6.50
2023-02-18T13:01:12.237Z,6.60
2023-02-18T13:02:54.015Z,6.60
2023-02-18T13:04:36.513Z,6.50
2023-02-18T13:06:24.350Z,6.40
2023-02-18T13:08:04.450Z,6.20
2023-02-18T13:09:35.251Z,6.20
2023-02-18T13:11:13.173Z,6.10
2023-02-18T13:12:57.606Z,6.10
2023-02-18T13:14:27.328Z,6.00
2023-02-18T13:16:04.783Z,5.90
2023-02-18T13:17:33.595Z,5.80
2023-02-18T13:19:10.426Z,5.80
2023-02-18T13:20:52.062Z,5.70
2023-02-18T13:22:18.198Z,5.60
2023-02-18T13:23:50.322Z,5.60
2023-02-18T13:25:14.029Z,5.50
2023-02-18T13:26:36.349Z,5.50
2023-02-18T13:28:10.971Z,5.50
2023-02-18T13:29:58.718Z,5.60
2023-02-18T13:31:49.542Z,5.60
2023-02-18T13:33:20.124Z,5.60
2023-02-18T13:34:52.170Z,5.70
2023-02-18T13:36:32.819Z,5.60
2023-02-18T13:38:13.246Z,5.60
2023-02-18T13:39:36.362Z,5.60
2023-02-18T13:40:59.714Z,5.60
2023-02-18T13:42:34.131Z,5.60
2023-02-18T13:43:56.274Z,5.70
2023-02-18T13:45:33.648Z,5.70
2023-02-18T13:46:58.870Z,5.70
2023-02-18T13:48:28.225Z,5.80
2023-02-18T13:49:52.350Z,5.90
2023-02-18T13:51:31.330Z,5.90
2023-02-18T13:53:19.097Z,6.00
2023-02-18T13:54:46.868Z,6.10
2023-02-18T13:56:27.273Z,6.10
2023-02-18T13:57:52.555Z,6.20
2023-02-18T13:59:23.536Z,6.30
2023-02-18T14:00:52.477Z,6.30
2023-02-18T14:02:21.327Z,6.30
2023-02-18T14:03:43.637Z,6.30
2023-02-18T14:05:08.907Z,6.30
2023-02-18T14:06:32.818Z,6.40
2023-02-18T14:08:14.522Z,6.40
2023-02-18T14:09:41.525Z,6.40
2023-02-18T14:11:12.627Z,6.40
2023-02-18T14:13:00.761Z,6.40
2023-02-18T14:14:33.370Z,6.30
2023-02-18T14:16:01.377Z,6.20
2023-02-18T14:17:32.175Z,6.20
2023-02-18T14:19:00.159Z,6.20
2023-02-18T14:20:22.283Z,6.20
2023-02-18T14:21:44.749Z,6.20
2023-02-18T14:23:19.072Z,6.20
2023-02-18T14:24:48.799Z,6.20
2023-02-18T14:26:23.451Z,6.10
2023-02-18T14:27:45.731Z,6.10
2023-02-18T14:29:14.283Z,6.00
2023-02-18T14:30:42.031Z,5.90
2023-02-18T14:32:11.432Z,5.80
2023-02-18T14:33:36.496Z,5.90
2023-02-18T14:35:26.843Z,5.80
2023-02-18T14:37:12.046Z,5.80
2023-02-18T14:39:04.945Z,5.70
2023-02-18T14:40:50.047Z,5.80
2023-02-18T14:42:37.903Z,5.80
2023-02-18T14:44:05.592Z,5.90
2023-02-18T14:46:04.896Z,5.90
2023-02-18T14:47:56.053Z,5.90
2023-02-18T14:49:40.738Z,5.90
2023-02-18T14:51:03.012Z,5.80
2023-02-18T14:52:43.728Z,5.90
2023-02-18T14:54:13.303Z,6.00
2023-02-18T14:55:39.214Z,6.00
2023-02-18T14:57:09.401Z,6.00
2023-02-18T14:58:36.748Z,6.00
2023-02-18T14:59:59.734Z,6.10
2023-02-18T15:01:33.500Z,6.10
2023-02-18T15:02:55.998Z,6.10
2023-02-18T15:04:18.865Z,6.10
2023-02-18T15:05:45.380Z,6.00
2023-02-18T15:07:10.293Z,6.00
2023-02-18T15:08:38.797Z,5.90
2023-02-18T15:10:00.935Z,5.90
2023-02-18T15:11:35.123Z,5.90
2023-02-18T15:12:57.283Z,5.90
2023-02-18T15:14:28.858Z,5.90
2023-02-18T15:15:57.609Z,5.90
2023-02-18T15:17:23.792Z,5.90
2023-02-18T15:18:55.396Z,5.90
2023-02-18T15:20:17.900Z,6.00
2023-02-18T15:21:43.707Z,6.00
2023-02-18T15:23:06.472Z,6.00
2023-02-18T15:24:33.712Z,6.00
2023-02-18T15:25:55.825Z,6.00
2023-02-18T15:27:33.068Z,6.00
2023-02-18T15:29:05.937Z,6.00
2023-02-18T15:30:31.379Z,5.90
2023-02-18T15:31:57.645Z,5.80
2023-02-18T15:33:21.303Z,5.80
2023-02-18T15:34:44.603Z,5.60
2023-02-18T15:36:13.528Z,5.60
2023-02-18T15:37:35.630Z,5.60
2023-02-18T15:38:58.043Z,5.50
2023-02-18T15:40:22.151Z,5.40
2023-02-18T15:41:44.441Z,5.40
2023-02-18T15:43:07.609Z,5.30
2023-02-18T15:44:32.515Z,5.30
2023-02-18T15:45:57.608Z,5.30
2023-02-18T15:47:20.901Z,5.30
2023-02-18T15:48:48.413Z,5.30
2023-02-18T15:50:37.680Z,5.30
2023-02-18T15:52:02.120Z,5.30
2023-02-18T15:53:25.581Z,5.30
2023-02-18T15:54:47.652Z,5.30
2023-02-18T15:56:15.139Z,5.40
2023-02-18T15:57:38.667Z,5.30
2023-02-18T15:59:16.587Z,5.30
2023-02-18T16:00:54.903Z,5.30
2023-02-18T16:02:23.443Z,5.30
2023-02-18T16:03:46.864Z,5.30
2023-02-18T16:05:15.643Z,5.20
2023-02-18T16:06:39.550Z,5.10
2023-02-18T16:08:07.142Z,5.10
2023-02-18T16:09:34.115Z,5.00
2023-02-18T16:11:07.095Z,4.90
2023-02-18T16:12:32.305Z,4.80
2023-02-18T16:13:54.447Z,4.70
2023-02-18T16:15:24.653Z,4.70
2023-02-18T16:17:06.198Z,4.70
2023-02-18T16:18:38.748Z,4.70
2023-02-18T16:20:37.674Z,4.60
2023-02-18T16:22:06.176Z,4.60
2023-02-18T16:23:36.037Z,4.50
2023-02-18T16:25:17.535Z,4.50
2023-02-18T16:26:39.712Z,4.40
2023-02-18T16:28:01.788Z,4.40
2023-02-18T16:29:36.159Z,4.30
2023-02-18T16:30:58.312Z,4.30
2023-02-18T16:32:22.234Z,4.30
2023-02-18T16:33:44.514Z,4.20
2023-02-18T16:35:07.030Z,4.20
2023-02-18T16:36:29.274Z,4.20
2023-02-18T16:37:52.961Z,4.20
2023-02-18T16:39:14.976Z,4.10
2023-02-18T16:40:40.491Z,4.10
2023-02-18T16:42:02.707Z,4.00
2023-02-18T16:43:27.342Z,4.00
2023-02-18T16:44:50.546Z,4.00
2023-02-18T16:46:19.040Z,3.90
2023-02-18T16:47:50.387Z,3.90
2023-02-18T16:49:14.273Z,3.90
2023-02-18T16:50:37.022Z,3.80
2023-02-18T16:52:02.459Z,3.80
2023-02-18T16:53:24.580Z,3.80
2023-02-18T16:54:48.230Z,3.80
2023-02-18T16:56:33.162Z,3.70
2023-02-18T16:57:55.777Z,3.70
2023-02-18T16:59:17.901Z,3.70
2023-02-18T17:00:40.080Z,3.60
2023-02-18T17:02:02.233Z,3.60
2023-02-18T17:03:24.297Z,3.60
2023-02-18T17:04:46.545Z,3.60
2023-02-18T17:06:08.859Z,3.50
2023-02-18T17:07:32.692Z,3.60
2023-02-18T17:08:55.590Z,3.50
2023-02-18T17:10:17.944Z,3.50
2023-02-18T17:11:40.044Z,3.50
2023-02-18T17:13:02.049Z,3.50
2023-02-18T17:14:24.147Z,3.40
2023-02-18T17:15:48.051Z,3.40
2023-02-18T17:17:13.937Z,3.40
2023-02-18T17:18:36.001Z,3.40
2023-02-18T17:19:58.018Z,3.40
2023-02-18T17:21:22.245Z,3.40
2023-02-18T17:22:44.326Z,3.30
2023-02-18T17:24:06.537Z,3.30
2023-02-18T17:25:33.610Z,3.30
2023-02-18T17:26:55.640Z,3.30
2023-02-18T17:28:19.103Z,3.30
2023-02-18T17:29:41.214Z,3.20
2023-02-18T17:31:03.829Z,3.20
2023-02-18T17:32:26.144Z,3.20
2023-02-18T17:33:48.269Z,3.20
2023-02-18T17:35:22.485Z,3.10
2023-02-18T17:36:45.477Z,3.20
2023-02-18T17:38:14.862Z,3.10
2023-02-18T17:39:36.899Z,3.10
2023-02-18T17:40:58.972Z,3.10
2023-02-18T17:42:21.298Z,3.10
2023-02-18T17:43:43.403Z,3.10
2023-02-18T17:45:28.822Z,3.00
2023-02-18T17:46:50.991Z,2.90
2023-02-18T17:48:13.040Z,3.00
2023-02-18T17:49:35.147Z,3.00
2023-02-18T17:50:57.882Z,3.00
2023-02-18T17:52:30.667Z,2.90
2023-02-18T17:53:53.689Z,2.90
2023-02-18T17:55:20.458Z,2.90
2023-02-18T17:56:43.388Z,2.90
2023-02-18T17:58:05.553Z,2.90
2023-02-18T17:59:29.077Z,2.90
2023-02-18T18:00:54.798Z,2.80
2023-02-18T18:02:28.188Z,2.80
2023-02-18T18:03:50.343Z,2.80
2023-02-18T18:05:25.722Z,2.80
2023-02-18T18:06:49.762Z,2.80
2023-02-18T18:08:12.487Z,2.80
2023-02-18T18:09:34.470Z,2.80
2023-02-18T18:10:59.201Z,2.80
2023-02-18T18:12:21.270Z,2.70
2023-02-18T18:13:43.605Z,2.70
2023-02-18T18:15:23.081Z,2.70
2023-02-18T18:16:45.261Z,2.70
2023-02-18T18:18:07.742Z,2.70
2023-02-18T18:19:30.258Z,2.70
2023-02-18T18:20:55.922Z,2.70
2023-02-18T18:22:18.092Z,2.70
2023-02-18T18:23:40.140Z,2.70
2023-02-18T18:25:04.631Z,2.70
2023-02-18T18:26:27.045Z,2.70
2023-02-18T18:27:52.254Z,2.70
2023-02-18T18:29:14.294Z,2.70
2023-02-18T18:30:40.045Z,2.70
2023-02-18T18:32:02.638Z,2.70
2023-02-18T18:33:34.659Z,2.70
2023-02-18T18:34:57.087Z,2.70
2023-02-18T18:36:20.360Z,2.60
2023-02-18T18:37:42.385Z,2.60
2023-02-18T18:39:04.529Z,2.60
2023-02-18T18:40:32.307Z,2.70
2023-02-18T18:41:54.389Z,2.70
2023-02-18T18:43:29.654Z,2.70
2023-02-18T18:44:52.787Z,2.70
2023-02-18T18:46:14.979Z,2.70
2023-02-18T18:47:37.133Z,2.70
2023-02-18T18:48:59.274Z,2.70
2023-02-18T18:50:22.951Z,2.70
2023-02-18T18:51:45.144Z,2.70
2023-02-18T18:53:08.128Z,2.80
2023-02-18T18:54:30.208Z,2.80
2023-02-18T18:55:55.014Z,2.80
2023-02-18T18:57:17.107Z,2.90
2023-02-18T18:58:39.817Z,2.90
2023-02-18T19:00:01.861Z,2.90
2023-02-18T19:01:27.074Z,2.90
2023-02-18T19:02:49.332Z,2.90
2023-02-18T19:04:11.483Z,2.90
2023-02-18T19:05:35.045Z,2.90
2023-02-18T19:06:57.166Z,2.90
2023-02-18T19:08:20.390Z,2.90
2023-02-18T19:09:42.502Z,3.00
2023-02-18T19:11:04.703Z,3.00
2023-02-18T19:12:26.873Z,3.00
2023-02-18T19:13:48.982Z,3.00
2023-02-18T19:15:17.787Z,3.00
2023-02-18T19:16:42.808Z,3.00
2023-02-18T19:18:05.149Z,3.00
2023-02-18T19:19:27.242Z,3.10
2023-02-18T19:20:49.409Z,3.10